virtualACA

Welcome To Vancouver International Airport CYVR

Hub Roster

Pilot Domicile Rank
Brian Kozushka - ACA1102CanadaChief Pilot
Jean-Michel Lazare - ACA2310FranceChief Pilot
Doug Fisher - ACA3285CanadaChief Pilot
Christian Parise - ACA3308CanadaNew Hire
Wil Barker - ACA3314United StatesNew Hire
Raphael Moll - ACA3325SwitzerlandNew Hire
RAOUF RIZK - ACA3332SpainNew Hire
James McLemore - ACA3341United StatesSenior Officer
Rob W - ACA3344CanadaNew Hire
Frank Bucovaz - ACA3348CanadaFirst Officer
Fritz Carlo Magpantay - ACA3351PhilippinesNew Hire
Terry Burt - ACA3354CanadaNew Hire
Kalman Cseh - ACA3356CanadaNew Hire

Current Vatsim Weather


CYVR 182000Z 17012KT 20SM -RA FEW030 FEW040 SCT053 BKN070 BKN080 17/11 A2968 RMK SC1CU1SC4AC2AC1 SC TR AC TR TCU TOPS SE S SLP053 DENSITY ALT 500FT
Vancouver International Airport